Flight Track Log - Related Links

Times and Time Zones

All times are in EDT time to prevent confusion due to time zone crossing. See the AWI3688 flight status page for this flight to view local times or setup timezone preferences in your user account.

Time Position Orientation Groundspeed Altitude Reporting Facility
EDT Latitude Longitude Course Direction KTS MPH feet Rate Location/Type
Wed 01:57:19 PM 39.8833 -75.2167 45° Northeast 162 186 700  Level Philadelphia TRACON
Wed 01:57:37 PM 39.8833 -75.2000 90° East 172 198 1,700 2,923 Climbing Philadelphia TRACON
Wed 01:58:37 PM 39.8667 -75.1333 108° East 204 235 4,500 2,952 Climbing Philadelphia TRACON
Wed 01:59:43 PM 39.8500 -75.0500 105° East 220 253 7,900 2,727 Climbing Philadelphia TRACON
Wed 02:00:00 PM 39.9525 -74.5475 37° Northeast  Level FlightAware Approximate
Wed 02:00:38 PM 39.8333 -74.9667 105° East 257 296 10,000  Level Philadelphia TRACON
Wed 02:01:00 PM 40.0727 -74.4212 57° Northeast  Level FlightAware Approximate
Wed 02:02:00 PM 40.1974 -74.2980 45° Northeast  Level FlightAware Approximate
Wed 02:02:55 PM 39.8142 -74.7167 96° East 331 381 13,800  Level New York Center
Wed 02:03:54 PM 39.8900 -74.6289 42° Northeast 320 368 15,700 1,900 Climbing New York Center
Wed 02:04:55 PM 39.9742 -74.5386 39° Northeast 344 396 17,600 1,587 Climbing New York Center
Wed 02:05:55 PM 40.0558 -74.4644 35° Northeast 373 429 18,900 1,373 Climbing New York Center
Wed 02:06:53 PM 40.1528 -74.3611 39° Northeast 392 451 20,300 1,373 Climbing New York Center
Wed 02:07:53 PM 40.2472 -74.2681 37° Northeast 406 467 21,600 1,289 Climbing New York Center
Wed 02:08:54 PM 40.3417 -74.1722 38° Northeast 418 481 22,900 1,240 Climbing New York Center
Wed 02:09:54 PM 40.4383 -74.0786 36° Northeast 428 493 24,100 1,041 Climbing New York Center
Wed 02:10:55 PM 40.5467 -74.0047 27° Northeast 428 493 25,000 843 Climbing New York Center
Wed 02:11:55 PM 40.6608 -73.9364 24° Northeast 434 499 25,800 513 Climbing New York Center
Wed 02:12:52 PM 40.7772 -73.8678 24° Northeast 445 512 26,000 -351 Climbing New York Center
Wed 02:15:03 PM 40.9811 -73.6222 42° Northeast 464 534 24,700 -691 Descending Boston Center
Wed 02:16:03 PM 41.0697 -73.5303 38° Northeast 459 528 23,800 -950 Descending Boston Center
Wed 02:17:03 PM 41.2033 -73.4911 12° North 421 484 22,800 -1,100 Descending Boston Center
Wed 02:18:03 PM 41.3222 -73.4986 357° North 421 484 21,600 -1,600 Descending Boston Center
Wed 02:19:03 PM 41.4347 -73.5006 359° North 415 478 19,600 -1,800 Descending Boston Center
Wed 02:20:03 PM 41.5431 -73.5081 357° North 395 455 18,000 -1,200 Descending Boston Center
Wed 02:21:03 PM 41.6367 -73.5122 358° North 374 430 17,200 -1,200 Descending Boston Center
Wed 02:22:03 PM 41.7533 -73.5142 359° North 374 430 15,600 -1,500 Descending Boston Center
Wed 02:23:03 PM 41.8431 -73.5158 359° North 367 422 14,200 -1,558 Descending Boston Center
Wed 02:23:47 PM 41.9264 -73.5200 358° North 351 404 12,900 -1,600 Descending Boston Center
Wed 02:24:03 PM 41.9492 -73.5203 359° North 349 402 12,600 -1,500 Descending Boston Center
Wed 02:25:03 PM 42.0514 -73.5250 358° North 349 402 11,000 -814 Descending Boston Center
Wed 02:26:01 PM 42.1431 -73.5208 North 349 402 11,000  Level Boston Center
Wed 02:27:01 PM 42.2389 -73.5339 354° North 349 402 11,000 -49 Level Boston Center
Wed 02:28:03 PM 42.3200 -73.5464 353° North 349 402 10,900 -984 Descending Boston Center
Wed 02:29:09 PM 42.4406 -73.5683 352° North 318 366 8,900 -1,667 Descending Boston Center
Wed 02:30:09 PM 42.5217 -73.5839 352° North 287 330 7,400 -1,488 Descending Boston Center
Wed 02:31:10 PM 42.5967 -73.6019 350° North 274 315 5,900 -1,500 Descending Boston Center
Wed 02:32:17 PM 42.6736 -73.6261 347° North 260 299 4,200 -1,370 Descending Boston Center
Wed 02:33:17 PM 42.7483 -73.6558 344° North 253 291 3,000 -730 Descending Boston Center
Wed 02:34:12 PM 42.7981 -73.6767 343° North 184 212 2,800 -218 Descending Boston Center

Login

Don't have an account? Register now (free) for customized features, flight alerts, and more!